sensor_id;sensor_type;location;lat;lon;timestamp;P1;durP1;ratioP1;P2;durP2;ratioP2
35372;SDS011;21476;51.652;7.852;2022-10-15T00:00:03;22.20;;;16.40;;
35372;SDS011;21476;51.652;7.852;2022-10-15T00:02:30;19.83;;;16.30;;
35372;SDS011;21476;51.652;7.852;2022-10-15T00:04:56;19.52;;;14.57;;
35372;SDS011;21476;51.652;7.852;2022-10-15T00:07:23;21.50;;;15.13;;
35372;SDS011;21476;51.652;7.852;2022-10-15T00:09:49;23.27;;;14.73;;
35372;SDS011;21476;51.652;7.852;2022-10-15T00:12:15;17.40;;;13.65;;
35372;SDS011;21476;51.652;7.852;2022-10-15T00:14:40;20.38;;;15.15;;
35372;SDS011;21476;51.652;7.852;2022-10-15T00:17:06;18.00;;;14.90;;
35372;SDS011;21476;51.652;7.852;2022-10-15T00:19:32;21.17;;;15.32;;
35372;SDS011;21476;51.652;7.852;2022-10-15T00:21:58;19.25;;;15.05;;
35372;SDS011;21476;51.652;7.852;2022-10-15T00:24:23;18.48;;;14.50;;
35372;SDS011;21476;51.652;7.852;2022-10-15T00:26:49;18.23;;;14.77;;
35372;SDS011;21476;51.652;7.852;2022-10-15T00:29:14;22.85;;;16.95;;
35372;SDS011;21476;51.652;7.852;2022-10-15T00:31:40;21.33;;;16.70;;
35372;SDS011;21476;51.652;7.852;2022-10-15T00:34:06;24.42;;;17.27;;
35372;SDS011;21476;51.652;7.852;2022-10-15T00:36:32;19.33;;;14.93;;
35372;SDS011;21476;51.652;7.852;2022-10-15T00:39:00;24.58;;;17.65;;
35372;SDS011;21476;51.652;7.852;2022-10-15T00:41:27;20.02;;;14.73;;
35372;SDS011;21476;51.652;7.852;2022-10-15T00:44:02;25.98;;;16.73;;
35372;SDS011;21476;51.652;7.852;2022-10-15T00:51:56;25.38;;;16.02;;
35372;SDS011;21476;51.652;7.852;2022-10-15T00:54:30;22.10;;;15.48;;
35372;SDS011;21476;51.652;7.852;2022-10-15T00:56:58;21.85;;;16.05;;
35372;SDS011;21476;51.652;7.852;2022-10-15T00:59:24;17.90;;;14.85;;
35372;SDS011;21476;51.652;7.852;2022-10-15T01:01:51;17.25;;;14.15;;
35372;SDS011;21476;51.652;7.852;2022-10-15T01:04:18;28.17;;;21.88;;
35372;SDS011;21476;51.652;7.852;2022-10-15T01:06:45;22.58;;;16.27;;
35372;SDS011;21476;51.652;7.852;2022-10-15T01:09:11;33.83;;;12.65;;
35372;SDS011;21476;51.652;7.852;2022-10-15T01:16:50;28.60;;;20.30;;
35372;SDS011;21476;51.652;7.852;2022-10-15T01:22:10;22.52;;;15.68;;
35372;SDS011;21476;51.652;7.852;2022-10-15T01:25:05;19.98;;;15.18;;
35372;SDS011;21476;51.652;7.852;2022-10-15T01:28:33;19.85;;;14.27;;
35372;SDS011;21476;51.652;7.852;2022-10-15T01:31:02;26.38;;;15.45;;
35372;SDS011;21476;51.652;7.852;2022-10-15T01:33:41;19.15;;;14.68;;
35372;SDS011;21476;51.652;7.852;2022-10-15T01:36:47;22.25;;;14.80;;
35372;SDS011;21476;51.652;7.852;2022-10-15T01:39:20;25.98;;;17.00;;
35372;SDS011;21476;51.652;7.852;2022-10-15T01:41:58;24.25;;;18.08;;
35372;SDS011;21476;51.652;7.852;2022-10-15T01:44:28;26.60;;;20.85;;
35372;SDS011;21476;51.652;7.852;2022-10-15T01:47:03;27.85;;;22.15;;
35372;SDS011;21476;51.652;7.852;2022-10-15T01:49:38;24.92;;;18.75;;
35372;SDS011;21476;51.652;7.852;2022-10-15T01:52:20;26.70;;;21.67;;
35372;SDS011;21476;51.652;7.852;2022-10-15T01:54:49;28.10;;;18.58;;
35372;SDS011;21476;51.652;7.852;2022-10-15T01:57:17;20.50;;;16.45;;
35372;SDS011;21476;51.652;7.852;2022-10-15T01:59:44;26.40;;;19.52;;
35372;SDS011;21476;51.652;7.852;2022-10-15T02:02:10;26.88;;;18.95;;
35372;SDS011;21476;51.652;7.852;2022-10-15T02:04:37;23.08;;;18.33;;
35372;SDS011;21476;51.652;7.852;2022-10-15T02:12:34;25.10;;;19.67;;
35372;SDS011;21476;51.652;7.852;2022-10-15T02:17:53;24.70;;;19.50;;
35372;SDS011;21476;51.652;7.852;2022-10-15T02:20:28;27.25;;;18.27;;
35372;SDS011;21476;51.652;7.852;2022-10-15T02:23:07;24.63;;;18.27;;
35372;SDS011;21476;51.652;7.852;2022-10-15T02:25:45;23.83;;;17.13;;
35372;SDS011;21476;51.652;7.852;2022-10-15T02:28:14;20.38;;;16.02;;
35372;SDS011;21476;51.652;7.852;2022-10-15T02:30:42;23.17;;;17.38;;
35372;SDS011;21476;51.652;7.852;2022-10-15T02:33:12;26.50;;;15.85;;
35372;SDS011;21476;51.652;7.852;2022-10-15T02:35:41;18.98;;;15.20;;
35372;SDS011;21476;51.652;7.852;2022-10-15T02:38:09;39.15;;;23.38;;
35372;SDS011;21476;51.652;7.852;2022-10-15T02:40:38;34.03;;;23.02;;
35372;SDS011;21476;51.652;7.852;2022-10-15T02:43:08;35.08;;;22.80;;
35372;SDS011;21476;51.652;7.852;2022-10-15T02:45:36;33.70;;;22.80;;
35372;SDS011;21476;51.652;7.852;2022-10-15T02:48:03;32.08;;;23.23;;
35372;SDS011;21476;51.652;7.852;2022-10-15T02:50:29;31.25;;;23.95;;
35372;SDS011;21476;51.652;7.852;2022-10-15T02:52:55;31.33;;;22.33;;
35372;SDS011;21476;51.652;7.852;2022-10-15T02:55:20;32.90;;;23.63;;
35372;SDS011;21476;51.652;7.852;2022-10-15T02:57:46;33.92;;;25.27;;
35372;SDS011;21476;51.652;7.852;2022-10-15T03:00:12;33.38;;;23.33;;
35372;SDS011;21476;51.652;7.852;2022-10-15T03:02:38;37.42;;;25.88;;
35372;SDS011;21476;51.652;7.852;2022-10-15T03:05:03;38.20;;;26.75;;
35372;SDS011;21476;51.652;7.852;2022-10-15T03:07:29;43.00;;;26.50;;
35372;SDS011;21476;51.652;7.852;2022-10-15T03:09:55;33.15;;;24.95;;
35372;SDS011;21476;51.652;7.852;2022-10-15T03:12:21;30.83;;;23.02;;
35372;SDS011;21476;51.652;7.852;2022-10-15T03:14:47;31.13;;;21.52;;
35372;SDS011;21476;51.652;7.852;2022-10-15T03:17:13;28.90;;;21.90;;
35372;SDS011;21476;51.652;7.852;2022-10-15T03:19:39;27.92;;;22.15;;
35372;SDS011;21476;51.652;7.852;2022-10-15T03:22:05;31.25;;;22.63;;
35372;SDS011;21476;51.652;7.852;2022-10-15T03:24:30;35.10;;;24.48;;
35372;SDS011;21476;51.652;7.852;2022-10-15T03:26:56;43.55;;;28.88;;
35372;SDS011;21476;51.652;7.852;2022-10-15T03:29:22;46.50;;;29.92;;
35372;SDS011;21476;51.652;7.852;2022-10-15T03:31:47;45.90;;;30.85;;
35372;SDS011;21476;51.652;7.852;2022-10-15T03:34:13;49.28;;;32.20;;
35372;SDS011;21476;51.652;7.852;2022-10-15T03:36:39;51.83;;;31.65;;
35372;SDS011;21476;51.652;7.852;2022-10-15T03:39:05;54.10;;;32.20;;
35372;SDS011;21476;51.652;7.852;2022-10-15T03:41:32;51.00;;;32.03;;
35372;SDS011;21476;51.652;7.852;2022-10-15T03:44:01;69.40;;;39.58;;
35372;SDS011;21476;51.652;7.852;2022-10-15T03:46:28;70.68;;;41.97;;
35372;SDS011;21476;51.652;7.852;2022-10-15T03:48:53;81.63;;;44.50;;
35372;SDS011;21476;51.652;7.852;2022-10-15T03:51:19;77.25;;;42.80;;
35372;SDS011;21476;51.652;7.852;2022-10-15T03:53:45;79.78;;;46.35;;
35372;SDS011;21476;51.652;7.852;2022-10-15T03:56:14;65.50;;;40.65;;
35372;SDS011;21476;51.652;7.852;2022-10-15T03:58:42;71.32;;;42.28;;
35372;SDS011;21476;51.652;7.852;2022-10-15T04:01:13;71.07;;;42.70;;
35372;SDS011;21476;51.652;7.852;2022-10-15T04:03:51;69.10;;;39.67;;
35372;SDS011;21476;51.652;7.852;2022-10-15T04:06:17;68.10;;;39.50;;
35372;SDS011;21476;51.652;7.852;2022-10-15T04:08:43;62.13;;;38.97;;
35372;SDS011;21476;51.652;7.852;2022-10-15T04:11:09;60.20;;;38.47;;
35372;SDS011;21476;51.652;7.852;2022-10-15T04:13:38;60.13;;;35.45;;
35372;SDS011;21476;51.652;7.852;2022-10-15T04:16:04;59.63;;;35.78;;
35372;SDS011;21476;51.652;7.852;2022-10-15T04:18:33;57.85;;;34.25;;
35372;SDS011;21476;51.652;7.852;2022-10-15T04:20:59;53.15;;;32.97;;
35372;SDS011;21476;51.652;7.852;2022-10-15T04:23:25;50.00;;;33.10;;
35372;SDS011;21476;51.652;7.852;2022-10-15T04:25:51;43.17;;;29.85;;
35372;SDS011;21476;51.652;7.852;2022-10-15T04:28:16;48.53;;;31.95;;
35372;SDS011;21476;51.652;7.852;2022-10-15T04:30:42;50.17;;;31.58;;
35372;SDS011;21476;51.652;7.852;2022-10-15T04:33:08;49.92;;;31.70;;
35372;SDS011;21476;51.652;7.852;2022-10-15T04:35:33;45.45;;;28.90;;
35372;SDS011;21476;51.652;7.852;2022-10-15T04:37:59;48.75;;;30.55;;
35372;SDS011;21476;51.652;7.852;2022-10-15T04:40:26;44.63;;;27.52;;
35372;SDS011;21476;51.652;7.852;2022-10-15T04:42:52;42.78;;;29.05;;
35372;SDS011;21476;51.652;7.852;2022-10-15T04:45:17;46.45;;;26.65;;
35372;SDS011;21476;51.652;7.852;2022-10-15T04:47:43;41.33;;;26.13;;
35372;SDS011;21476;51.652;7.852;2022-10-15T04:50:09;38.22;;;26.33;;
35372;SDS011;21476;51.652;7.852;2022-10-15T04:52:35;39.30;;;26.23;;
35372;SDS011;21476;51.652;7.852;2022-10-15T04:55:01;37.53;;;25.60;;
35372;SDS011;21476;51.652;7.852;2022-10-15T04:57:28;35.47;;;24.52;;
35372;SDS011;21476;51.652;7.852;2022-10-15T04:59:55;36.83;;;24.85;;
35372;SDS011;21476;51.652;7.852;2022-10-15T05:02:20;42.63;;;26.65;;
35372;SDS011;21476;51.652;7.852;2022-10-15T05:04:46;37.25;;;25.55;;
35372;SDS011;21476;51.652;7.852;2022-10-15T05:07:11;35.45;;;25.75;;
35372;SDS011;21476;51.652;7.852;2022-10-15T05:09:37;41.00;;;27.33;;
35372;SDS011;21476;51.652;7.852;2022-10-15T05:12:03;45.90;;;30.02;;
35372;SDS011;21476;51.652;7.852;2022-10-15T05:14:28;48.55;;;30.10;;
35372;SDS011;21476;51.652;7.852;2022-10-15T05:16:54;45.97;;;29.58;;
35372;SDS011;21476;51.652;7.852;2022-10-15T05:19:19;48.78;;;30.00;;
35372;SDS011;21476;51.652;7.852;2022-10-15T05:21:45;50.65;;;32.25;;
35372;SDS011;21476;51.652;7.852;2022-10-15T05:24:11;51.80;;;31.75;;
35372;SDS011;21476;51.652;7.852;2022-10-15T05:26:36;49.33;;;31.38;;
35372;SDS011;21476;51.652;7.852;2022-10-15T05:29:02;44.63;;;30.63;;
35372;SDS011;21476;51.652;7.852;2022-10-15T05:31:28;50.47;;;30.30;;
35372;SDS011;21476;51.652;7.852;2022-10-15T05:33:55;56.10;;;34.72;;
35372;SDS011;21476;51.652;7.852;2022-10-15T05:38:57;53.77;;;35.33;;
35372;SDS011;21476;51.652;7.852;2022-10-15T05:41:24;50.38;;;34.53;;
35372;SDS011;21476;51.652;7.852;2022-10-15T05:43:51;47.60;;;32.70;;
35372;SDS011;21476;51.652;7.852;2022-10-15T05:46:18;54.13;;;36.20;;
35372;SDS011;21476;51.652;7.852;2022-10-15T05:48:48;50.75;;;34.13;;
35372;SDS011;21476;51.652;7.852;2022-10-15T05:51:14;47.20;;;33.75;;
35372;SDS011;21476;51.652;7.852;2022-10-15T05:53:40;46.45;;;33.03;;
35372;SDS011;21476;51.652;7.852;2022-10-15T05:56:07;51.13;;;33.80;;
35372;SDS011;21476;51.652;7.852;2022-10-15T05:58:34;50.13;;;32.35;;
35372;SDS011;21476;51.652;7.852;2022-10-15T06:01:01;48.83;;;33.95;;
35372;SDS011;21476;51.652;7.852;2022-10-15T06:03:29;51.38;;;36.05;;
35372;SDS011;21476;51.652;7.852;2022-10-15T06:05:54;49.05;;;34.15;;
35372;SDS011;21476;51.652;7.852;2022-10-15T06:08:21;48.55;;;31.83;;
35372;SDS011;21476;51.652;7.852;2022-10-15T06:10:47;39.92;;;30.23;;
35372;SDS011;21476;51.652;7.852;2022-10-15T06:13:13;41.35;;;30.92;;
35372;SDS011;21476;51.652;7.852;2022-10-15T06:15:40;43.33;;;30.60;;
35372;SDS011;21476;51.652;7.852;2022-10-15T06:18:06;38.85;;;29.00;;
35372;SDS011;21476;51.652;7.852;2022-10-15T06:20:33;42.78;;;30.50;;
35372;SDS011;21476;51.652;7.852;2022-10-15T06:22:59;43.00;;;31.85;;
35372;SDS011;21476;51.652;7.852;2022-10-15T06:25:25;39.17;;;29.50;;
35372;SDS011;21476;51.652;7.852;2022-10-15T06:27:52;39.95;;;28.27;;
35372;SDS011;21476;51.652;7.852;2022-10-15T06:30:18;41.90;;;28.67;;
35372;SDS011;21476;51.652;7.852;2022-10-15T06:32:48;35.22;;;28.42;;
35372;SDS011;21476;51.652;7.852;2022-10-15T06:35:14;32.63;;;26.92;;
35372;SDS011;21476;51.652;7.852;2022-10-15T06:37:47;25.52;;;21.20;;
35372;SDS011;21476;51.652;7.852;2022-10-15T06:40:13;24.35;;;20.95;;
35372;SDS011;21476;51.652;7.852;2022-10-15T06:42:38;23.58;;;20.85;;
35372;SDS011;21476;51.652;7.852;2022-10-15T06:45:05;21.30;;;18.33;;
35372;SDS011;21476;51.652;7.852;2022-10-15T06:47:32;22.50;;;20.13;;
35372;SDS011;21476;51.652;7.852;2022-10-15T06:49:57;23.15;;;19.80;;
35372;SDS011;21476;51.652;7.852;2022-10-15T06:52:24;21.05;;;18.75;;
35372;SDS011;21476;51.652;7.852;2022-10-15T06:54:50;23.08;;;19.40;;
35372;SDS011;21476;51.652;7.852;2022-10-15T06:57:15;27.80;;;23.05;;
35372;SDS011;21476;51.652;7.852;2022-10-15T06:59:41;29.95;;;22.83;;
35372;SDS011;21476;51.652;7.852;2022-10-15T07:02:10;29.90;;;22.98;;
35372;SDS011;21476;51.652;7.852;2022-10-15T07:04:38;26.33;;;22.25;;
35372;SDS011;21476;51.652;7.852;2022-10-15T07:07:04;31.00;;;23.73;;
35372;SDS011;21476;51.652;7.852;2022-10-15T07:09:36;28.38;;;24.17;;
35372;SDS011;21476;51.652;7.852;2022-10-15T07:12:02;27.73;;;22.67;;
35372;SDS011;21476;51.652;7.852;2022-10-15T07:14:34;28.60;;;23.52;;
35372;SDS011;21476;51.652;7.852;2022-10-15T07:17:00;25.88;;;22.88;;
35372;SDS011;21476;51.652;7.852;2022-10-15T07:19:28;29.45;;;21.85;;
35372;SDS011;21476;51.652;7.852;2022-10-15T07:22:30;29.52;;;24.10;;
35372;SDS011;21476;51.652;7.852;2022-10-15T07:24:56;29.88;;;24.33;;
35372;SDS011;21476;51.652;7.852;2022-10-15T07:27:22;27.27;;;22.90;;
35372;SDS011;21476;51.652;7.852;2022-10-15T07:29:47;29.95;;;24.70;;
35372;SDS011;21476;51.652;7.852;2022-10-15T07:32:13;33.92;;;23.63;;
35372;SDS011;21476;51.652;7.852;2022-10-15T07:34:39;30.65;;;23.13;;
35372;SDS011;21476;51.652;7.852;2022-10-15T07:37:04;28.13;;;22.90;;
35372;SDS011;21476;51.652;7.852;2022-10-15T07:39:30;32.60;;;25.38;;
35372;SDS011;21476;51.652;7.852;2022-10-15T07:41:56;30.15;;;23.33;;
35372;SDS011;21476;51.652;7.852;2022-10-15T07:44:21;29.77;;;23.98;;
35372;SDS011;21476;51.652;7.852;2022-10-15T07:46:47;31.73;;;24.15;;
35372;SDS011;21476;51.652;7.852;2022-10-15T07:49:13;31.30;;;25.10;;
35372;SDS011;21476;51.652;7.852;2022-10-15T07:51:40;28.42;;;23.30;;
35372;SDS011;21476;51.652;7.852;2022-10-15T07:54:06;31.25;;;24.92;;
35372;SDS011;21476;51.652;7.852;2022-10-15T07:56:32;30.33;;;24.05;;
35372;SDS011;21476;51.652;7.852;2022-10-15T07:58:58;27.45;;;23.10;;
35372;SDS011;21476;51.652;7.852;2022-10-15T08:01:23;27.77;;;22.30;;
35372;SDS011;21476;51.652;7.852;2022-10-15T08:03:49;28.17;;;22.38;;
35372;SDS011;21476;51.652;7.852;2022-10-15T08:06:15;28.60;;;21.52;;
35372;SDS011;21476;51.652;7.852;2022-10-15T08:08:44;23.65;;;21.10;;
35372;SDS011;21476;51.652;7.852;2022-10-15T08:11:11;25.23;;;20.17;;
35372;SDS011;21476;51.652;7.852;2022-10-15T08:13:39;24.67;;;19.77;;
35372;SDS011;21476;51.652;7.852;2022-10-15T08:16:10;26.48;;;20.38;;
35372;SDS011;21476;51.652;7.852;2022-10-15T08:18:37;21.85;;;18.00;;
35372;SDS011;21476;51.652;7.852;2022-10-15T08:21:15;24.30;;;18.15;;
35372;SDS011;21476;51.652;7.852;2022-10-15T08:23:44;23.40;;;18.45;;
35372;SDS011;21476;51.652;7.852;2022-10-15T08:26:10;23.55;;;19.35;;
35372;SDS011;21476;51.652;7.852;2022-10-15T08:28:36;22.08;;;18.88;;
35372;SDS011;21476;51.652;7.852;2022-10-15T08:31:02;20.02;;;17.70;;
35372;SDS011;21476;51.652;7.852;2022-10-15T08:33:28;21.17;;;18.90;;
35372;SDS011;21476;51.652;7.852;2022-10-15T08:35:57;22.77;;;18.65;;
35372;SDS011;21476;51.652;7.852;2022-10-15T08:38:22;21.52;;;18.52;;
35372;SDS011;21476;51.652;7.852;2022-10-15T08:40:52;20.60;;;17.17;;
35372;SDS011;21476;51.652;7.852;2022-10-15T08:43:41;23.03;;;19.03;;
35372;SDS011;21476;51.652;7.852;2022-10-15T08:46:08;18.80;;;16.73;;
35372;SDS011;21476;51.652;7.852;2022-10-15T08:48:41;21.98;;;18.10;;
35372;SDS011;21476;51.652;7.852;2022-10-15T08:51:22;20.38;;;18.20;;
35372;SDS011;21476;51.652;7.852;2022-10-15T08:53:57;20.88;;;16.60;;
35372;SDS011;21476;51.652;7.852;2022-10-15T09:02:22;21.95;;;17.60;;
35372;SDS011;21476;51.652;7.852;2022-10-15T09:05:02;21.08;;;18.73;;
35372;SDS011;21476;51.652;7.852;2022-10-15T09:08:09;23.80;;;18.45;;
35372;SDS011;21476;51.652;7.852;2022-10-15T09:10:46;23.33;;;17.73;;
35372;SDS011;21476;51.652;7.852;2022-10-15T09:15:59;19.45;;;16.92;;
35372;SDS011;21476;51.652;7.852;2022-10-15T09:18:34;18.27;;;15.43;;
35372;SDS011;21476;51.652;7.852;2022-10-15T09:21:05;17.95;;;14.95;;
35372;SDS011;21476;51.652;7.852;2022-10-15T09:23:33;18.50;;;15.18;;
35372;SDS011;21476;51.652;7.852;2022-10-15T09:31:39;12.68;;;10.65;;
35372;SDS011;21476;51.652;7.852;2022-10-15T09:34:28;9.55;;;8.00;;
35372;SDS011;21476;51.652;7.852;2022-10-15T09:37:15;11.35;;;8.63;;
35372;SDS011;21476;51.652;7.852;2022-10-15T09:39:58;9.70;;;8.05;;
35372;SDS011;21476;51.652;7.852;2022-10-15T09:42:37;12.60;;;8.70;;
35372;SDS011;21476;51.652;7.852;2022-10-15T09:45:09;12.20;;;8.20;;
35372;SDS011;21476;51.652;7.852;2022-10-15T09:47:35;9.30;;;7.63;;
35372;SDS011;21476;51.652;7.852;2022-10-15T09:50:04;11.85;;;9.18;;
35372;SDS011;21476;51.652;7.852;2022-10-15T09:57:51;9.63;;;6.18;;
35372;SDS011;21476;51.652;7.852;2022-10-15T10:00:20;7.88;;;6.10;;
35372;SDS011;21476;51.652;7.852;2022-10-15T10:03:05;7.90;;;5.80;;
35372;SDS011;21476;51.652;7.852;2022-10-15T10:05:38;6.03;;;4.60;;
35372;SDS011;21476;51.652;7.852;2022-10-15T10:08:24;6.53;;;5.10;;
35372;SDS011;21476;51.652;7.852;2022-10-15T10:10:55;6.05;;;5.00;;
35372;SDS011;21476;51.652;7.852;2022-10-15T10:16:09;8.90;;;5.88;;
35372;SDS011;21476;51.652;7.852;2022-10-15T10:18:36;7.15;;;5.20;;
35372;SDS011;21476;51.652;7.852;2022-10-15T10:21:03;6.82;;;5.07;;
35372;SDS011;21476;51.652;7.852;2022-10-15T10:23:32;7.03;;;3.95;;
35372;SDS011;21476;51.652;7.852;2022-10-15T10:26:06;6.13;;;3.40;;
35372;SDS011;21476;51.652;7.852;2022-10-15T10:31:28;5.30;;;3.60;;
35372;SDS011;21476;51.652;7.852;2022-10-15T10:33:55;5.00;;;3.10;;
35372;SDS011;21476;51.652;7.852;2022-10-15T10:36:25;3.90;;;2.67;;
35372;SDS011;21476;51.652;7.852;2022-10-15T10:39:39;6.72;;;2.95;;
35372;SDS011;21476;51.652;7.852;2022-10-15T10:45:05;2.65;;;1.90;;
35372;SDS011;21476;51.652;7.852;2022-10-15T10:49:54;2.38;;;1.35;;
35372;SDS011;21476;51.652;7.852;2022-10-15T10:52:23;1.90;;;1.30;;
35372;SDS011;21476;51.652;7.852;2022-10-15T10:54:55;3.20;;;1.02;;
35372;SDS011;21476;51.652;7.852;2022-10-15T11:00:24;2.28;;;1.15;;
35372;SDS011;21476;51.652;7.852;2022-10-15T11:03:00;2.53;;;1.13;;
35372;SDS011;21476;51.652;7.852;2022-10-15T11:05:31;2.67;;;0.73;;
35372;SDS011;21476;51.652;7.852;2022-10-15T11:16:06;2.30;;;1.40;;
35372;SDS011;21476;51.652;7.852;2022-10-15T11:51:54;2.15;;;0.90;;
35372;SDS011;21476;51.652;7.852;2022-10-15T11:54:37;2.58;;;0.70;;
35372;SDS011;21476;51.652;7.852;2022-10-15T11:57:17;0.88;;;0.60;;
35372;SDS011;21476;51.652;7.852;2022-10-15T12:05:36;1.40;;;0.75;;
35372;SDS011;21476;51.652;7.852;2022-10-15T12:07:59;0.90;;;0.50;;
35372;SDS011;21476;51.652;7.852;2022-10-15T12:18:24;2.47;;;0.80;;
35372;SDS011;21476;51.652;7.852;2022-10-15T12:20:52;0.90;;;0.60;;
35372;SDS011;21476;51.652;7.852;2022-10-15T12:25:51;1.45;;;0.63;;
35372;SDS011;21476;51.652;7.852;2022-10-15T12:28:18;0.85;;;0.57;;
35372;SDS011;21476;51.652;7.852;2022-10-15T12:30:52;1.25;;;0.65;;
35372;SDS011;21476;51.652;7.852;2022-10-15T12:35:57;0.85;;;0.50;;
35372;SDS011;21476;51.652;7.852;2022-10-15T12:38:31;1.83;;;0.55;;
35372;SDS011;21476;51.652;7.852;2022-10-15T12:41:00;1.50;;;0.65;;
35372;SDS011;21476;51.652;7.852;2022-10-15T12:43:36;0.80;;;0.50;;
35372;SDS011;21476;51.652;7.852;2022-10-15T12:46:07;0.70;;;0.50;;
35372;SDS011;21476;51.652;7.852;2022-10-15T12:53:46;2.17;;;0.63;;
35372;SDS011;21476;51.652;7.852;2022-10-15T13:03:42;0.73;;;0.40;;
35372;SDS011;21476;51.652;7.852;2022-10-15T13:06:13;1.48;;;0.35;;
35372;SDS011;21476;51.652;7.852;2022-10-15T13:08:43;1.98;;;0.60;;
35372;SDS011;21476;51.652;7.852;2022-10-15T13:11:18;2.22;;;0.70;;
35372;SDS011;21476;51.652;7.852;2022-10-15T13:13:51;3.70;;;0.70;;
35372;SDS011;21476;51.652;7.852;2022-10-15T13:16:21;0.50;;;0.30;;
35372;SDS011;21476;51.652;7.852;2022-10-15T13:18:51;3.17;;;0.73;;
35372;SDS011;21476;51.652;7.852;2022-10-15T13:21:19;2.30;;;0.40;;
35372;SDS011;21476;51.652;7.852;2022-10-15T13:23:47;0.60;;;0.40;;
35372;SDS011;21476;51.652;7.852;2022-10-15T13:26:24;1.90;;;0.63;;
35372;SDS011;21476;51.652;7.852;2022-10-15T13:28:57;4.07;;;1.35;;
35372;SDS011;21476;51.652;7.852;2022-10-15T13:31:23;0.60;;;0.50;;
35372;SDS011;21476;51.652;7.852;2022-10-15T13:33:52;1.45;;;0.70;;
35372;SDS011;21476;51.652;7.852;2022-10-15T13:36:23;1.42;;;0.52;;
35372;SDS011;21476;51.652;7.852;2022-10-15T13:38:53;2.17;;;0.47;;
35372;SDS011;21476;51.652;7.852;2022-10-15T13:41:32;1.13;;;0.57;;
35372;SDS011;21476;51.652;7.852;2022-10-15T13:43:59;0.63;;;0.50;;
35372;SDS011;21476;51.652;7.852;2022-10-15T13:46:28;1.48;;;0.47;;
35372;SDS011;21476;51.652;7.852;2022-10-15T13:48:56;2.33;;;0.50;;
35372;SDS011;21476;51.652;7.852;2022-10-15T13:51:24;1.65;;;0.60;;
35372;SDS011;21476;51.652;7.852;2022-10-15T13:53:55;3.38;;;0.70;;
35372;SDS011;21476;51.652;7.852;2022-10-15T13:56:23;3.05;;;0.77;;
35372;SDS011;21476;51.652;7.852;2022-10-15T13:58:51;0.52;;;0.32;;
35372;SDS011;21476;51.652;7.852;2022-10-15T14:01:22;0.70;;;0.40;;
35372;SDS011;21476;51.652;7.852;2022-10-15T14:06:20;3.65;;;0.40;;
35372;SDS011;21476;51.652;7.852;2022-10-15T14:08:48;3.20;;;0.50;;
35372;SDS011;21476;51.652;7.852;2022-10-15T14:11:19;1.05;;;0.50;;
35372;SDS011;21476;51.652;7.852;2022-10-15T14:13:46;0.45;;;0.32;;
35372;SDS011;21476;51.652;7.852;2022-10-15T14:21:30;2.25;;;0.50;;
35372;SDS011;21476;51.652;7.852;2022-10-15T14:26:45;1.35;;;0.93;;
35372;SDS011;21476;51.652;7.852;2022-10-15T14:31:51;1.15;;;0.73;;
35372;SDS011;21476;51.652;7.852;2022-10-15T14:36:57;2.05;;;0.50;;
35372;SDS011;21476;51.652;7.852;2022-10-15T14:39:24;0.98;;;0.60;;
35372;SDS011;21476;51.652;7.852;2022-10-15T14:41:57;3.05;;;0.50;;
35372;SDS011;21476;51.652;7.852;2022-10-15T14:44:25;1.17;;;0.57;;
35372;SDS011;21476;51.652;7.852;2022-10-15T14:47:03;1.35;;;0.55;;
35372;SDS011;21476;51.652;7.852;2022-10-15T14:49:32;2.70;;;0.57;;
35372;SDS011;21476;51.652;7.852;2022-10-15T14:52:00;0.50;;;0.43;;
35372;SDS011;21476;51.652;7.852;2022-10-15T14:54:30;1.60;;;0.60;;
35372;SDS011;21476;51.652;7.852;2022-10-15T14:59:28;2.25;;;0.82;;
35372;SDS011;21476;51.652;7.852;2022-10-15T15:01:57;0.68;;;0.50;;
35372;SDS011;21476;51.652;7.852;2022-10-15T15:04:35;0.98;;;0.50;;
35372;SDS011;21476;51.652;7.852;2022-10-15T15:07:17;2.92;;;0.35;;
35372;SDS011;21476;51.652;7.852;2022-10-15T15:09:48;1.35;;;0.50;;
35372;SDS011;21476;51.652;7.852;2022-10-15T15:12:19;1.90;;;0.43;;
35372;SDS011;21476;51.652;7.852;2022-10-15T15:14:48;1.00;;;0.35;;
35372;SDS011;21476;51.652;7.852;2022-10-15T15:17:17;2.75;;;0.75;;
35372;SDS011;21476;51.652;7.852;2022-10-15T15:19:47;2.13;;;0.73;;
35372;SDS011;21476;51.652;7.852;2022-10-15T15:22:19;0.80;;;0.45;;
35372;SDS011;21476;51.652;7.852;2022-10-15T15:24:55;3.42;;;0.55;;
35372;SDS011;21476;51.652;7.852;2022-10-15T15:27:31;0.68;;;0.60;;
35372;SDS011;21476;51.652;7.852;2022-10-15T15:30:01;3.13;;;0.68;;
35372;SDS011;21476;51.652;7.852;2022-10-15T15:32:31;2.20;;;1.05;;
35372;SDS011;21476;51.652;7.852;2022-10-15T15:34:57;6.57;;;1.58;;
35372;SDS011;21476;51.652;7.852;2022-10-15T15:37:23;2.90;;;1.30;;
35372;SDS011;21476;51.652;7.852;2022-10-15T15:39:49;1.08;;;0.63;;
35372;SDS011;21476;51.652;7.852;2022-10-15T15:42:16;1.48;;;0.60;;
35372;SDS011;21476;51.652;7.852;2022-10-15T15:44:44;3.80;;;1.02;;
35372;SDS011;21476;51.652;7.852;2022-10-15T15:47:10;2.17;;;1.00;;
35372;SDS011;21476;51.652;7.852;2022-10-15T15:49:35;1.90;;;0.80;;
35372;SDS011;21476;51.652;7.852;2022-10-15T15:52:02;2.08;;;1.00;;
35372;SDS011;21476;51.652;7.852;2022-10-15T15:54:29;1.45;;;0.80;;
35372;SDS011;21476;51.652;7.852;2022-10-15T15:56:55;7.82;;;4.05;;
35372;SDS011;21476;51.652;7.852;2022-10-15T15:59:21;3.30;;;0.70;;
35372;SDS011;21476;51.652;7.852;2022-10-15T16:01:46;2.90;;;1.30;;
35372;SDS011;21476;51.652;7.852;2022-10-15T16:04:12;4.25;;;1.52;;
35372;SDS011;21476;51.652;7.852;2022-10-15T16:06:38;4.03;;;1.23;;
35372;SDS011;21476;51.652;7.852;2022-10-15T16:09:04;7.68;;;1.95;;
35372;SDS011;21476;51.652;7.852;2022-10-15T16:11:30;4.70;;;0.90;;
35372;SDS011;21476;51.652;7.852;2022-10-15T16:13:57;1.67;;;0.80;;
35372;SDS011;21476;51.652;7.852;2022-10-15T16:16:23;2.38;;;1.02;;
35372;SDS011;21476;51.652;7.852;2022-10-15T16:18:50;2.45;;;1.25;;
35372;SDS011;21476;51.652;7.852;2022-10-15T16:21:22;3.80;;;1.45;;
35372;SDS011;21476;51.652;7.852;2022-10-15T16:23:49;5.53;;;1.45;;
35372;SDS011;21476;51.652;7.852;2022-10-15T16:26:15;4.20;;;2.33;;
35372;SDS011;21476;51.652;7.852;2022-10-15T16:28:41;6.82;;;4.07;;
35372;SDS011;21476;51.652;7.852;2022-10-15T16:33:39;4.22;;;2.13;;
35372;SDS011;21476;51.652;7.852;2022-10-15T16:36:05;6.72;;;3.22;;
35372;SDS011;21476;51.652;7.852;2022-10-15T16:38:31;5.82;;;2.90;;
35372;SDS011;21476;51.652;7.852;2022-10-15T16:40:57;4.32;;;2.63;;
35372;SDS011;21476;51.652;7.852;2022-10-15T16:43:22;3.20;;;2.30;;
35372;SDS011;21476;51.652;7.852;2022-10-15T16:45:54;3.88;;;2.35;;
35372;SDS011;21476;51.652;7.852;2022-10-15T16:50:46;3.00;;;1.50;;
35372;SDS011;21476;51.652;7.852;2022-10-15T16:53:12;3.88;;;1.60;;
35372;SDS011;21476;51.652;7.852;2022-10-15T16:55:38;3.72;;;1.98;;
35372;SDS011;21476;51.652;7.852;2022-10-15T16:58:04;3.70;;;1.98;;
35372;SDS011;21476;51.652;7.852;2022-10-15T17:00:30;5.57;;;2.45;;
35372;SDS011;21476;51.652;7.852;2022-10-15T17:02:55;5.47;;;1.80;;
35372;SDS011;21476;51.652;7.852;2022-10-15T17:05:22;5.22;;;2.28;;
35372;SDS011;21476;51.652;7.852;2022-10-15T17:07:48;7.65;;;2.97;;
35372;SDS011;21476;51.652;7.852;2022-10-15T17:10:14;6.30;;;2.95;;
35372;SDS011;21476;51.652;7.852;2022-10-15T17:12:39;5.53;;;2.90;;
35372;SDS011;21476;51.652;7.852;2022-10-15T17:15:05;6.22;;;2.80;;